Time;durP1;ratioP1;P1;durP2;ratioP2;P2;SDS_P1;SDS_P2;PMS_P1;PMS_P2;Temp;Humidity;BMP_temperature;BMP_pressure;BME280_temperature;BME280_humidity;BME280_pressure;Samples;Min_cycle;Max_cycle;Signal;HPM_P1;HPM_P2
2021/08/29 00:01:41;;;;;;;5.18;3.17;;;;;;;;;;6176436;28;20129;-67
2021/08/29 00:04:44;;;;;;;4.88;3.42;;;;;;;;;;6180688;28;20096;-67
2021/08/29 00:07:46;;;;;;;7.10;3.75;;;;;;;;;;6175736;28;20133;-66
2021/08/29 00:10:48;;;;;;;4.13;3.00;;;;;;;;;;6179493;28;20122;-76
2021/08/29 00:13:49;;;;;;;4.38;3.33;;;;;;;;;;6186697;28;20051;-67
2021/08/29 00:16:51;;;;;;;5.03;3.40;;;;;;;;;;6181263;28;20149;-66
2021/08/29 00:19:54;;;;;;;7.20;3.60;;;;;;;;;;6188275;28;20042;-70
2021/08/29 00:22:56;;;;;;;6.30;3.30;;;;;;;;;;6181942;28;20050;-66
2021/08/29 00:25:57;;;;;;;3.80;3.20;;;;;;;;;;6181720;28;20100;-66
2021/08/29 00:28:59;;;;;;;6.75;3.95;;;;;;;;;;6189262;28;20145;-67
2021/08/29 00:32:00;;;;;;;5.38;3.47;;;;;;;;;;6176650;28;20108;-74
2021/08/29 00:35:03;;;;;;;4.30;3.28;;;;;;;;;;6186862;28;20612;-68
2021/08/29 00:38:05;;;;;;;5.15;3.38;;;;;;;;;;6176219;28;20086;-69
2021/08/29 00:41:07;;;;;;;5.47;2.92;;;;;;;;;;6185700;28;20060;-68
2021/08/29 00:44:09;;;;;;;6.47;3.00;;;;;;;;;;6182809;28;20080;-67
2021/08/29 00:47:10;;;;;;;5.60;3.20;;;;;;;;;;6176546;28;20093;-67
2021/08/29 00:50:13;;;;;;;4.10;2.80;;;;;;;;;;6184445;28;20470;-80
2021/08/29 00:53:16;;;;;;;3.38;2.80;;;;;;;;;;6184235;28;20134;-72
2021/08/29 00:56:18;;;;;;;4.28;2.70;;;;;;;;;;6185575;28;20133;-70
2021/08/29 00:59:20;;;;;;;3.78;3.00;;;;;;;;;;6185375;28;20178;-66
2021/08/29 01:02:25;;;;;;;5.65;2.67;;;;;;;;;;6174725;28;20125;-66
2021/08/29 01:05:30;;;;;;;4.03;3.00;;;;;;;;;;6179783;28;20604;-71
2021/08/29 01:08:36;;;;;;;3.65;2.70;;;;;;;;;;6190977;28;20184;-66
2021/08/29 01:11:40;;;;;;;3.05;2.40;;;;;;;;;;6180195;28;20136;-66
2021/08/29 01:14:43;;;;;;;5.93;2.65;;;;;;;;;;6187864;28;20046;-66
2021/08/29 01:17:46;;;;;;;4.85;2.85;;;;;;;;;;6174850;28;20058;-74
2021/08/29 01:20:56;;;;;;;4.72;2.50;;;;;;;;;;6181081;28;20055;-66
2021/08/29 01:24:00;;;;;;;2.63;2.40;;;;;;;;;;6183155;28;20100;-72
2021/08/29 01:27:08;;;;;;;4.43;2.53;;;;;;;;;;6179186;28;20409;-72
2021/08/29 01:30:12;;;;;;;4.32;2.60;;;;;;;;;;6182487;28;20086;-74
2021/08/29 01:33:14;;;;;;;3.70;2.38;;;;;;;;;;6175320;28;20053;-69
2021/08/29 01:36:17;;;;;;;4.25;2.47;;;;;;;;;;6177390;28;20047;-66
2021/08/29 01:39:19;;;;;;;3.95;2.42;;;;;;;;;;6197015;28;20050;-67
2021/08/29 01:42:20;;;;;;;5.28;2.08;;;;;;;;;;6185849;28;20054;-67
2021/08/29 01:45:23;;;;;;;4.43;2.58;;;;;;;;;;6181641;28;20045;-79
2021/08/29 01:48:25;;;;;;;4.40;2.60;;;;;;;;;;6180360;28;20042;-67
2021/08/29 01:51:27;;;;;;;3.60;2.60;;;;;;;;;;6178105;28;20051;-67
2021/08/29 01:54:28;;;;;;;3.47;2.03;;;;;;;;;;6184864;28;20129;-67
2021/08/29 01:57:30;;;;;;;3.13;2.33;;;;;;;;;;6178836;28;20050;-72
2021/08/29 02:00:41;;;;;;;3.90;2.33;;;;;;;;;;6185285;28;20104;-78
2021/08/29 02:03:44;;;;;;;3.92;2.33;;;;;;;;;;6177390;28;20050;-67
2021/08/29 02:06:48;;;;;;;4.72;2.50;;;;;;;;;;6182535;28;20046;-66
2021/08/29 02:09:52;;;;;;;3.97;2.63;;;;;;;;;;6187670;28;20046;-66
2021/08/29 02:12:56;;;;;;;3.75;2.55;;;;;;;;;;6179996;28;20624;-74
2021/08/29 02:16:03;;;;;;;4.35;2.53;;;;;;;;;;6177324;28;20474;-70
2021/08/29 02:19:05;;;;;;;3.33;2.35;;;;;;;;;;6186249;28;20064;-67
2021/08/29 02:22:07;;;;;;;4.07;2.65;;;;;;;;;;6179214;28;20116;-66
2021/08/29 02:25:10;;;;;;;5.80;2.50;;;;;;;;;;6186607;28;20085;-68
2021/08/29 02:28:12;;;;;;;4.68;2.53;;;;;;;;;;6181416;28;20046;-67
2021/08/29 02:31:18;;;;;;;5.63;2.42;;;;;;;;;;6179615;28;20125;-69
2021/08/29 02:34:20;;;;;;;4.18;2.45;;;;;;;;;;6184006;28;20193;-66
2021/08/29 02:37:21;;;;;;;4.78;3.08;;;;;;;;;;6178011;28;20141;-81
2021/08/29 02:40:23;;;;;;;4.80;2.75;;;;;;;;;;6180618;28;20045;-76
2021/08/29 02:43:25;;;;;;;6.55;3.15;;;;;;;;;;6183329;28;20047;-67
2021/08/29 02:46:28;;;;;;;3.58;2.60;;;;;;;;;;6176626;28;20047;-67
2021/08/29 02:49:30;;;;;;;4.23;2.50;;;;;;;;;;6181229;28;20055;-68
2021/08/29 02:52:32;;;;;;;11.57;2.65;;;;;;;;;;6167720;28;20789;-71
2021/08/29 02:55:34;;;;;;;3.88;2.90;;;;;;;;;;6175728;28;20117;-68
2021/08/29 02:58:36;;;;;;;6.38;2.60;;;;;;;;;;6180258;28;20046;-67
2021/08/29 03:01:39;;;;;;;3.72;2.40;;;;;;;;;;6174589;28;20049;-70
2021/08/29 03:04:41;;;;;;;5.93;3.00;;;;;;;;;;6165374;28;20490;-67
2021/08/29 03:07:42;;;;;;;4.78;3.10;;;;;;;;;;6179250;28;20046;-67
2021/08/29 03:10:44;;;;;;;3.78;2.85;;;;;;;;;;6182602;28;20399;-67
2021/08/29 03:13:46;;;;;;;4.50;2.75;;;;;;;;;;6180991;28;20047;-68
2021/08/29 03:16:50;;;;;;;5.63;3.28;;;;;;;;;;6175262;28;20042;-68
2021/08/29 03:19:51;;;;;;;;;;;;;;;;;;6183293;28;20054;-67
2021/08/29 03:22:53;;;;;;;5.68;3.00;;;;;;;;;;6174388;28;19922;-68
2021/08/29 03:25:55;;;;;;;4.30;3.10;;;;;;;;;;6179727;28;20038;-69
2021/08/29 03:28:57;;;;;;;4.97;2.80;;;;;;;;;;6185026;28;20073;-71
2021/08/29 03:32:00;;;;;;;4.75;3.35;;;;;;;;;;6171709;28;20043;-72
2021/08/29 03:35:03;;;;;;;5.30;3.10;;;;;;;;;;6178614;28;20103;-68
2021/08/29 03:38:05;;;;;;;5.25;2.95;;;;;;;;;;6177336;28;20054;-69
2021/08/29 03:41:08;;;;;;;5.57;3.05;;;;;;;;;;6179988;28;20046;-68
2021/08/29 03:44:12;;;;;;;6.00;3.42;;;;;;;;;;6183730;28;20042;-68
2021/08/29 03:47:16;;;;;;;4.85;2.92;;;;;;;;;;6178811;28;20081;-83
2021/08/29 03:50:17;;;;;;;;;;;;;;;;;;6186510;28;20132;-77
2021/08/29 03:53:19;;;;;;;6.32;2.70;;;;;;;;;;6189270;28;20427;-67
2021/08/29 03:56:21;;;;;;;4.70;2.72;;;;;;;;;;6186650;28;20054;-67
2021/08/29 03:59:23;;;;;;;4.25;2.95;;;;;;;;;;6192168;28;20117;-66
2021/08/29 04:02:26;;;;;;;4.65;3.10;;;;;;;;;;6180001;28;20053;-68
2021/08/29 04:05:28;;;;;;;3.92;2.90;;;;;;;;;;6182463;28;20591;-67
2021/08/29 04:08:32;;;;;;;3.63;2.65;;;;;;;;;;6195606;28;20141;-67
2021/08/29 04:11:35;;;;;;;3.70;2.80;;;;;;;;;;6183449;28;20494;-68
2021/08/29 04:14:37;;;;;;;3.75;2.72;;;;;;;;;;6192021;28;20093;-69
2021/08/29 04:17:40;;;;;;;6.85;3.03;;;;;;;;;;6179481;28;20038;-66
2021/08/29 04:20:42;;;;;;;4.77;2.80;;;;;;;;;;6183858;28;20043;-66
2021/08/29 04:23:44;;;;;;;3.22;2.60;;;;;;;;;;6187486;28;20093;-69
2021/08/29 04:26:46;;;;;;;4.15;2.80;;;;;;;;;;6183852;28;20105;-67
2021/08/29 04:29:48;;;;;;;5.00;2.42;;;;;;;;;;6191117;28;20451;-71
2021/08/29 04:32:53;;;;;;;4.47;2.72;;;;;;;;;;6180585;28;20054;-71
2021/08/29 04:35:54;;;;;;;4.00;1.80;;;;;;;;;;6179982;28;20062;-67
2021/08/29 04:38:56;;;;;;;3.22;2.40;;;;;;;;;;6190848;28;20192;-67
2021/08/29 04:41:57;;;;;;;5.32;2.33;;;;;;;;;;6184851;28;20093;-70
2021/08/29 04:44:59;;;;;;;3.92;2.42;;;;;;;;;;6197738;28;20050;-67
2021/08/29 04:48:02;;;;;;;3.70;2.60;;;;;;;;;;6180054;28;20133;-67
2021/08/29 04:51:04;;;;;;;3.53;2.30;;;;;;;;;;6180773;28;20061;-68
2021/08/29 04:54:06;;;;;;;3.67;2.47;;;;;;;;;;6193530;28;20629;-67
2021/08/29 04:57:07;;;;;;;4.63;2.72;;;;;;;;;;6176649;28;20054;-68
2021/08/29 05:00:10;;;;;;;3.10;2.22;;;;;;;;;;6187847;28;20054;-76
2021/08/29 05:03:13;;;;;;;3.70;2.60;;;;;;;;;;6181834;28;20054;-67
2021/08/29 05:06:14;;;;;;;6.10;2.47;;;;;;;;;;6178362;28;20141;-69
2021/08/29 05:09:16;;;;;;;4.38;2.78;;;;;;;;;;6189183;28;20054;-68
2021/08/29 05:12:18;;;;;;;3.03;2.65;;;;;;;;;;6180437;28;20050;-68
2021/08/29 05:15:20;;;;;;;4.65;2.88;;;;;;;;;;6181586;28;20065;-69
2021/08/29 05:18:23;;;;;;;3.75;2.53;;;;;;;;;;6179171;28;20046;-77
2021/08/29 05:21:25;;;;;;;4.93;2.60;;;;;;;;;;6178950;28;20065;-70
2021/08/29 05:24:26;;;;;;;6.07;2.60;;;;;;;;;;6186244;28;20576;-71
2021/08/29 05:27:28;;;;;;;3.70;2.40;;;;;;;;;;6182086;28;20216;-68
2021/08/29 05:30:29;;;;;;;4.35;3.08;;;;;;;;;;6183261;28;20050;-79
2021/08/29 05:33:32;;;;;;;5.45;2.78;;;;;;;;;;6184928;28;20046;-69
2021/08/29 05:36:34;;;;;;;4.47;2.83;;;;;;;;;;6178785;28;20058;-67
2021/08/29 05:39:36;;;;;;;4.18;2.75;;;;;;;;;;6183988;28;20069;-69
2021/08/29 05:42:37;;;;;;;4.22;2.85;;;;;;;;;;6189834;28;20089;-68
2021/08/29 05:45:39;;;;;;;5.20;2.70;;;;;;;;;;6183371;28;20054;-67
2021/08/29 05:48:43;;;;;;;4.20;2.80;;;;;;;;;;6182910;28;20629;-67
2021/08/29 05:51:44;;;;;;;3.63;2.88;;;;;;;;;;6173823;28;20054;-68
2021/08/29 05:54:46;;;;;;;4.13;2.80;;;;;;;;;;6184916;28;20046;-68
2021/08/29 05:57:48;;;;;;;7.28;3.47;;;;;;;;;;6181677;28;20461;-68
2021/08/29 06:00:50;;;;;;;3.33;2.70;;;;;;;;;;6179525;28;20051;-68
2021/08/29 06:03:53;;;;;;;7.30;2.90;;;;;;;;;;6180629;28;20133;-68
2021/08/29 06:06:54;;;;;;;4.97;2.50;;;;;;;;;;6174184;28;20133;-72
2021/08/29 06:09:56;;;;;;;4.88;2.30;;;;;;;;;;6184849;28;20069;-68
2021/08/29 06:12:57;;;;;;;5.93;2.55;;;;;;;;;;6176661;28;20097;-69
2021/08/29 06:15:59;;;;;;;4.78;2.60;;;;;;;;;;6177637;28;20196;-76
2021/08/29 06:19:02;;;;;;;5.82;2.53;;;;;;;;;;6180222;28;20054;-78
2021/08/29 06:22:04;;;;;;;3.80;2.67;;;;;;;;;;6176900;28;20175;-67
2021/08/29 06:25:06;;;;;;;5.40;2.40;;;;;;;;;;6180462;28;20096;-81
2021/08/29 06:28:08;;;;;;;3.53;2.28;;;;;;;;;;6180700;28;20069;-73
2021/08/29 06:31:09;;;;;;;2.90;2.20;;;;;;;;;;6171323;28;20116;-68
2021/08/29 06:34:12;;;;;;;4.28;2.53;;;;;;;;;;6181051;28;20061;-68
2021/08/29 06:37:14;;;;;;;3.83;2.00;;;;;;;;;;6178801;28;20561;-68
2021/08/29 06:40:15;;;;;;;4.38;2.10;;;;;;;;;;6178099;28;20464;-75
2021/08/29 06:43:17;;;;;;;2.28;1.90;;;;;;;;;;6183441;28;20192;-69
2021/08/29 06:46:19;;;;;;;3.92;2.28;;;;;;;;;;6179097;28;20050;-68
2021/08/29 06:49:22;;;;;;;2.72;2.15;;;;;;;;;;6181958;28;20046;-68
2021/08/29 06:52:23;;;;;;;4.00;2.10;;;;;;;;;;6175624;28;20125;-80
2021/08/29 06:55:25;;;;;;;2.35;1.80;;;;;;;;;;6181329;28;20982;-79
2021/08/29 06:58:27;;;;;;;3.38;1.58;;;;;;;;;;6186543;28;20047;-69
2021/08/29 07:01:28;;;;;;;2.72;1.73;;;;;;;;;;6175014;28;20050;-70
2021/08/29 07:04:31;;;;;;;4.05;1.70;;;;;;;;;;6183945;28;20070;-68
2021/08/29 07:07:33;;;;;;;3.63;2.10;;;;;;;;;;6178917;28;20093;-69
2021/08/29 07:10:34;;;;;;;4.30;1.50;;;;;;;;;;6180918;28;20042;-70
2021/08/29 07:13:36;;;;;;;2.72;1.70;;;;;;;;;;6183237;28;20046;-69
2021/08/29 07:16:38;;;;;;;2.65;1.60;;;;;;;;;;6171315;28;20082;-69
2021/08/29 07:19:40;;;;;;;2.30;1.50;;;;;;;;;;6181107;28;20137;-72
2021/08/29 07:22:42;;;;;;;1.83;1.40;;;;;;;;;;6171800;28;20061;-77
2021/08/29 07:25:43;;;;;;;2.40;1.60;;;;;;;;;;6173999;28;20148;-68
2021/08/29 07:28:45;;;;;;;3.08;1.48;;;;;;;;;;6186219;28;20583;-75
2021/08/29 07:31:47;;;;;;;2.10;1.52;;;;;;;;;;6173868;28;20177;-69
2021/08/29 07:34:50;;;;;;;2.22;1.40;;;;;;;;;;6184786;28;20046;-69
2021/08/29 07:37:52;;;;;;;2.40;1.17;;;;;;;;;;6168549;28;20050;-69
2021/08/29 07:40:53;;;;;;;2.00;1.20;;;;;;;;;;6178024;28;20193;-73
2021/08/29 07:43:55;;;;;;;1.40;1.10;;;;;;;;;;6183435;28;20051;-72
2021/08/29 07:46:56;;;;;;;1.75;0.90;;;;;;;;;;6176461;28;20128;-68
2021/08/29 07:49:59;;;;;;;1.40;0.80;;;;;;;;;;6180255;28;20052;-76
2021/08/29 07:53:01;;;;;;;1.45;0.90;;;;;;;;;;6176812;28;20046;-72
2021/08/29 07:56:02;;;;;;;1.33;0.93;;;;;;;;;;6172026;28;20046;-69
2021/08/29 07:59:04;;;;;;;1.45;1.13;;;;;;;;;;6184533;28;20706;-69
2021/08/29 08:02:06;;;;;;;3.13;1.50;;;;;;;;;;6169565;28;20137;-73
2021/08/29 08:05:09;;;;;;;1.30;1.00;;;;;;;;;;6181018;28;20054;-78
2021/08/29 08:08:11;;;;;;;2.13;1.30;;;;;;;;;;6177294;28;20162;-69
2021/08/29 08:11:12;;;;;;;1.75;1.30;;;;;;;;;;6177444;28;20042;-74
2021/08/29 08:14:14;;;;;;;2.00;0.90;;;;;;;;;;6183280;28;20050;-68
2021/08/29 08:17:16;;;;;;;1.30;0.98;;;;;;;;;;6172775;28;20060;-79
2021/08/29 08:20:19;;;;;;;2.53;1.00;;;;;;;;;;6168794;28;20208;-79
2021/08/29 08:23:20;;;;;;;2.42;1.10;;;;;;;;;;6176203;28;20043;-69
2021/08/29 08:26:22;;;;;;;2.92;1.15;;;;;;;;;;6173284;28;20047;-69
2021/08/29 08:29:26;;;;;;;1.73;1.15;;;;;;;;;;6184434;28;20104;-69
2021/08/29 08:32:28;;;;;;;1.95;1.27;;;;;;;;;;6173482;28;20085;-68
2021/08/29 08:35:31;;;;;;;1.67;1.15;;;;;;;;;;6179499;28;20487;-80
2021/08/29 08:38:32;;;;;;;1.48;1.10;;;;;;;;;;6184870;28;20066;-75
2021/08/29 08:41:35;;;;;;;1.17;0.90;;;;;;;;;;6183348;28;20057;-71
2021/08/29 08:44:37;;;;;;;1.35;1.02;;;;;;;;;;6185157;28;20093;-68
2021/08/29 08:47:42;;;;;;;1.50;1.30;;;;;;;;;;6173178;28;20137;-69
2021/08/29 08:50:49;;;;;;;1.77;1.15;;;;;;;;;;6180214;28;20051;-68
2021/08/29 08:53:51;;;;;;;1.38;1.08;;;;;;;;;;6183384;28;20501;-68
2021/08/29 08:56:53;;;;;;;2.15;0.90;;;;;;;;;;6181152;28;20141;-68
2021/08/29 08:59:58;;;;;;;1.20;0.80;;;;;;;;;;6182791;28;20054;-68
2021/08/29 09:02:59;;;;;;;1.10;0.80;;;;;;;;;;6179119;28;20676;-69
2021/08/29 09:06:03;;;;;;;1.33;0.70;;;;;;;;;;6175598;28;20129;-69
2021/08/29 09:09:04;;;;;;;1.52;1.10;;;;;;;;;;6185588;28;20062;-73
2021/08/29 09:12:06;;;;;;;1.48;0.95;;;;;;;;;;6179428;28;20055;-71
2021/08/29 09:15:20;;;;;;;1.42;0.93;;;;;;;;;;6188173;28;20061;-76
2021/08/29 09:18:21;;;;;;;1.48;1.08;;;;;;;;;;6186900;28;20187;-79
2021/08/29 09:21:26;;;;;;;2.70;1.00;;;;;;;;;;6180331;28;20540;-71
2021/08/29 09:24:30;;;;;;;2.90;0.90;;;;;;;;;;6187748;28;20508;-69
2021/08/29 09:27:32;;;;;;;1.80;0.90;;;;;;;;;;6176381;28;20050;-69
2021/08/29 09:30:33;;;;;;;0.85;0.80;;;;;;;;;;6178785;28;20084;-80
2021/08/29 09:33:35;;;;;;;1.20;0.90;;;;;;;;;;6182804;28;20046;-69
2021/08/29 09:36:39;;;;;;;1.38;0.85;;;;;;;;;;6180337;28;20165;-69
2021/08/29 09:39:40;;;;;;;1.27;1.00;;;;;;;;;;6193327;28;20062;-70
2021/08/29 09:42:43;;;;;;;1.45;0.90;;;;;;;;;;6187167;28;20046;-71
2021/08/29 09:45:45;;;;;;;2.05;1.15;;;;;;;;;;6182242;28;20043;-78
2021/08/29 09:48:48;;;;;;;2.72;1.10;;;;;;;;;;6189629;28;20053;-69
2021/08/29 09:51:51;;;;;;;1.13;1.02;;;;;;;;;;6176180;28;20054;-71
2021/08/29 09:54:54;;;;;;;2.22;1.10;;;;;;;;;;6184111;28;20050;-70
2021/08/29 09:57:57;;;;;;;1.60;1.13;;;;;;;;;;6172904;28;20043;-70
2021/08/29 10:01:09;;;;;;;2.10;0.93;;;;;;;;;;6175374;28;20595;-76
2021/08/29 10:04:17;;;;;;;2.45;1.05;;;;;;;;;;6178615;28;20054;-69
2021/08/29 10:07:20;;;;;;;0.70;0.70;;;;;;;;;;6180748;28;20065;-69
2021/08/29 10:10:24;;;;;;;1.33;1.00;;;;;;;;;;6165855;28;20379;-79
2021/08/29 10:13:26;;;;;;;1.42;1.10;;;;;;;;;;6185476;28;20583;-76
2021/08/29 10:16:28;;;;;;;1.27;0.90;;;;;;;;;;6180723;28;20387;-68
2021/08/29 10:19:30;;;;;;;1.75;1.10;;;;;;;;;;6183241;28;20128;-70
2021/08/29 10:22:35;;;;;;;1.42;1.10;;;;;;;;;;6170612;28;20046;-70
2021/08/29 10:25:38;;;;;;;1.17;0.98;;;;;;;;;;6172941;28;20046;-71
2021/08/29 10:28:44;;;;;;;2.35;1.38;;;;;;;;;;6183582;28;20062;-73
2021/08/29 10:31:49;;;;;;;1.58;1.20;;;;;;;;;;6178160;28;20061;-68
2021/08/29 10:34:52;;;;;;;1.05;0.80;;;;;;;;;;6183305;28;20050;-68
2021/08/29 10:37:55;;;;;;;1.42;1.20;;;;;;;;;;6177666;28;20174;-74
2021/08/29 10:40:57;;;;;;;1.17;1.08;;;;;;;;;;6176181;28;20092;-69
2021/08/29 10:43:59;;;;;;;3.22;1.10;;;;;;;;;;6178793;28;20204;-69
2021/08/29 10:47:01;;;;;;;2.45;1.10;;;;;;;;;;6168658;28;20054;-69
2021/08/29 10:50:05;;;;;;;1.33;1.02;;;;;;;;;;6176954;28;20116;-75
2021/08/29 10:53:30;;;;;;;1.48;1.10;;;;;;;;;;6179247;28;20046;-68
2021/08/29 10:56:33;;;;;;;1.42;1.00;;;;;;;;;;6173930;28;20507;-67
2021/08/29 10:59:35;;;;;;;1.63;1.10;;;;;;;;;;6185124;28;20243;-72
2021/08/29 11:02:37;;;;;;;;;;;;;;;;;;6176442;28;20121;-68
2021/08/29 11:05:54;;;;;;;2.80;1.17;;;;;;;;;;6175564;28;19921;-70
2021/08/29 11:09:32;;;;;;;1.40;1.20;;;;;;;;;;6188083;28;20042;-75
2021/08/29 11:12:34;;;;;;;2.30;1.08;;;;;;;;;;6177181;28;20038;-68
2021/08/29 11:15:38;;;;;;;1.35;1.15;;;;;;;;;;6171007;28;20047;-78
2021/08/29 11:19:10;;;;;;;2.85;1.00;;;;;;;;;;6177335;28;20129;-69
2021/08/29 11:22:21;;;;;;;1.20;1.00;;;;;;;;;;6170741;28;20514;-70
2021/08/29 11:25:25;;;;;;;3.17;1.30;;;;;;;;;;6181170;28;20050;-80
2021/08/29 11:28:29;;;;;;;3.50;1.20;;;;;;;;;;6184209;28;20173;-69
2021/08/29 11:31:50;;;;;;;2.08;1.10;;;;;;;;;;6168843;28;20076;-78
2021/08/29 11:35:04;;;;;;;4.37;1.40;;;;;;;;;;6181258;28;20049;-68
2021/08/29 11:38:14;;;;;;;1.33;1.10;;;;;;;;;;6171926;28;20205;-71
2021/08/29 11:41:18;;;;;;;4.18;1.25;;;;;;;;;;6176288;28;20042;-79
2021/08/29 11:44:20;;;;;;;4.45;1.15;;;;;;;;;;6183180;28;20046;-70
2021/08/29 11:47:22;;;;;;;1.30;1.20;;;;;;;;;;6168473;28;20042;-71
2021/08/29 11:50:26;;;;;;;0.93;0.85;;;;;;;;;;6174296;28;20096;-75
2021/08/29 11:53:28;;;;;;;1.45;1.17;;;;;;;;;;6182151;28;20492;-78
2021/08/29 11:56:33;;;;;;;3.28;1.20;;;;;;;;;;6170634;28;20039;-69
2021/08/29 11:59:37;;;;;;;1.33;1.02;;;;;;;;;;6179715;28;20449;-69
2021/08/29 12:02:41;;;;;;;2.30;1.05;;;;;;;;;;6168673;28;20043;-69
2021/08/29 12:05:58;;;;;;;2.25;1.30;;;;;;;;;;6167372;28;20046;-69
2021/08/29 12:09:16;;;;;;;2.75;1.20;;;;;;;;;;6183029;28;20141;-69
2021/08/29 12:12:20;;;;;;;6.35;1.55;;;;;;;;;;6177388;28;20073;-69
2021/08/29 12:15:25;;;;;;;2.58;1.40;;;;;;;;;;6177086;28;20042;-78
2021/08/29 12:18:28;;;;;;;4.22;1.10;;;;;;;;;;6177466;28;20042;-73
2021/08/29 12:21:31;;;;;;;1.20;1.00;;;;;;;;;;6176167;28;20035;-69
2021/08/29 12:24:34;;;;;;;2.67;1.08;;;;;;;;;;6185775;28;20521;-80
2021/08/29 12:27:37;;;;;;;1.58;1.15;;;;;;;;;;6179168;28;20058;-69
2021/08/29 12:30:39;;;;;;;3.83;1.23;;;;;;;;;;6174669;28;20042;-68
2021/08/29 12:33:47;;;;;;;1.67;0.90;;;;;;;;;;6180541;28;20060;-68
2021/08/29 12:37:02;;;;;;;1.23;1.10;;;;;;;;;;6177575;28;20119;-69
2021/08/29 12:40:06;;;;;;;2.03;1.20;;;;;;;;;;6186268;28;20046;-71
2021/08/29 12:43:10;;;;;;;2.90;1.02;;;;;;;;;;6182510;28;20102;-75
2021/08/29 12:46:12;;;;;;;1.33;1.00;;;;;;;;;;6177744;28;20042;-68
2021/08/29 12:49:13;;;;;;;1.50;1.15;;;;;;;;;;6185617;28;20058;-68
2021/08/29 12:52:21;;;;;;;1.60;1.10;;;;;;;;;;6161656;28;20594;-69
2021/08/29 12:55:23;;;;;;;1.85;1.50;;;;;;;;;;6178295;28;20064;-79
2021/08/29 12:58:29;;;;;;;2.78;1.10;;;;;;;;;;6181725;28;20038;-68
2021/08/29 13:01:31;;;;;;;1.80;1.20;;;;;;;;;;6178371;28;20121;-75
2021/08/29 13:04:32;;;;;;;1.98;1.33;;;;;;;;;;6185496;28;20594;-73
2021/08/29 13:07:47;;;;;;;1.60;1.15;;;;;;;;;;6180238;28;20062;-67
2021/08/29 13:11:10;;;;;;;1.75;1.38;;;;;;;;;;6178631;28;20046;-67
2021/08/29 13:14:27;;;;;;;1.48;1.20;;;;;;;;;;6178495;28;20073;-68
2021/08/29 13:17:30;;;;;;;1.60;1.13;;;;;;;;;;6175378;28;20414;-71
2021/08/29 13:20:37;;;;;;;1.20;1.10;;;;;;;;;;6177280;28;20049;-75
2021/08/29 13:23:38;;;;;;;1.42;0.85;;;;;;;;;;6185038;28;20105;-67
2021/08/29 13:26:40;;;;;;;2.75;1.13;;;;;;;;;;6181285;28;20038;-67
2021/08/29 13:29:43;;;;;;;1.55;1.15;;;;;;;;;;6182891;28;20046;-67
2021/08/29 13:32:45;;;;;;;2.20;1.00;;;;;;;;;;6175368;28;20185;-78
2021/08/29 13:35:47;;;;;;;1.55;0.98;;;;;;;;;;6172596;28;20057;-71
2021/08/29 13:38:49;;;;;;;1.20;0.90;;;;;;;;;;6185636;28;20051;-69
2021/08/29 13:42:19;;;;;;;1.48;1.10;;;;;;;;;;6179652;28;20385;-68
2021/08/29 13:45:26;;;;;;;2.85;1.13;;;;;;;;;;6187398;28;20099;-75
2021/08/29 13:48:29;;;;;;;2.78;0.90;;;;;;;;;;6181853;28;20137;-67
2021/08/29 13:51:31;;;;;;;2.17;0.90;;;;;;;;;;6173831;28;20704;-74
2021/08/29 13:54:34;;;;;;;1.42;0.93;;;;;;;;;;6186255;28;20686;-70
2021/08/29 13:57:35;;;;;;;1.92;0.90;;;;;;;;;;6178131;28;20050;-67
2021/08/29 14:00:40;;;;;;;1.25;0.90;;;;;;;;;;6177073;28;20188;-69
2021/08/29 14:03:42;;;;;;;3.08;1.02;;;;;;;;;;6175804;28;20057;-68
2021/08/29 14:06:43;;;;;;;1.20;1.00;;;;;;;;;;6174616;28;20054;-72
2021/08/29 14:09:45;;;;;;;2.33;1.00;;;;;;;;;;6183763;28;20046;-68
2021/08/29 14:12:49;;;;;;;1.10;1.00;;;;;;;;;;6177985;28;20038;-72
2021/08/29 14:15:53;;;;;;;5.10;0.90;;;;;;;;;;6177355;28;20078;-74
2021/08/29 14:18:54;;;;;;;1.73;1.10;;;;;;;;;;6180593;28;20043;-69
2021/08/29 14:21:56;;;;;;;2.85;1.10;;;;;;;;;;6174867;28;20058;-69
2021/08/29 14:24:57;;;;;;;1.75;0.90;;;;;;;;;;6179304;28;20046;-67
2021/08/29 14:27:59;;;;;;;1.00;0.88;;;;;;;;;;6179652;28;20125;-67
2021/08/29 14:31:02;;;;;;;3.00;1.02;;;;;;;;;;6177115;28;20589;-78
2021/08/29 14:34:04;;;;;;;1.77;1.35;;;;;;;;;;6187331;28;20116;-69
2021/08/29 14:37:06;;;;;;;3.63;1.48;;;;;;;;;;6178410;28;20104;-67
2021/08/29 14:40:08;;;;;;;2.35;1.00;;;;;;;;;;6181699;28;20058;-75
2021/08/29 14:43:10;;;;;;;1.58;0.82;;;;;;;;;;6177829;28;20043;-68
2021/08/29 14:46:13;;;;;;;1.63;1.02;;;;;;;;;;6172371;28;20448;-70
2021/08/29 14:49:14;;;;;;;1.95;1.00;;;;;;;;;;6177942;28;20061;-69
2021/08/29 14:52:16;;;;;;;5.93;0.82;;;;;;;;;;6176802;28;20085;-68
2021/08/29 14:55:20;;;;;;;1.67;0.90;;;;;;;;;;6175599;28;20042;-75
2021/08/29 14:58:22;;;;;;;2.38;0.90;;;;;;;;;;6182809;28;20043;-70
2021/08/29 15:01:25;;;;;;;1.42;0.90;;;;;;;;;;6171492;28;20483;-74
2021/08/29 15:04:26;;;;;;;1.63;0.80;;;;;;;;;;6179078;28;20154;-68
2021/08/29 15:07:28;;;;;;;1.35;0.90;;;;;;;;;;6174595;28;20051;-68
2021/08/29 15:10:29;;;;;;;1.20;0.73;;;;;;;;;;6179170;28;20556;-81
2021/08/29 15:13:31;;;;;;;1.85;1.63;;;;;;;;;;6182701;28;20054;-68
2021/08/29 15:16:34;;;;;;;2.10;0.90;;;;;;;;;;6177554;28;20042;-76
2021/08/29 15:19:36;;;;;;;3.10;0.90;;;;;;;;;;6182975;28;20142;-68
2021/08/29 15:22:37;;;;;;;1.00;0.80;;;;;;;;;;6177147;28;20410;-68
2021/08/29 15:25:39;;;;;;;2.03;0.73;;;;;;;;;;6178832;28;20039;-68
2021/08/29 15:28:41;;;;;;;2.05;0.75;;;;;;;;;;6181271;28;20137;-68
2021/08/29 15:31:44;;;;;;;;;;;;;;;;;;6178613;28;20510;-68
2021/08/29 15:34:45;;;;;;;2.20;1.02;;;;;;;;;;6183581;28;19926;-68
2021/08/29 15:37:47;;;;;;;1.88;0.90;;;;;;;;;;6178989;28;21191;-67
2021/08/29 15:40:49;;;;;;;2.05;1.10;;;;;;;;;;6183963;28;20162;-70
2021/08/29 15:43:51;;;;;;;2.03;0.90;;;;;;;;;;6184606;28;20129;-68
2021/08/29 15:46:54;;;;;;;3.45;1.10;;;;;;;;;;6180432;28;20046;-74
2021/08/29 15:49:56;;;;;;;1.35;0.80;;;;;;;;;;6188145;28;20046;-71
2021/08/29 15:52:58;;;;;;;1.48;1.10;;;;;;;;;;6179164;28;20173;-68
2021/08/29 15:55:59;;;;;;;3.10;0.80;;;;;;;;;;6180285;28;20138;-68
2021/08/29 15:59:01;;;;;;;4.30;0.90;;;;;;;;;;6187726;28;20216;-69
2021/08/29 16:02:05;;;;;;;3.55;1.45;;;;;;;;;;6180431;28;20082;-68
2021/08/29 16:05:07;;;;;;;1.33;0.95;;;;;;;;;;6190833;28;20054;-79
2021/08/29 16:08:09;;;;;;;2.05;0.93;;;;;;;;;;6186453;28;20125;-68
2021/08/29 16:11:11;;;;;;;4.55;1.10;;;;;;;;;;6182282;28;20477;-73
2021/08/29 16:14:13;;;;;;;3.03;1.40;;;;;;;;;;6193503;28;20756;-68
2021/08/29 16:17:15;;;;;;;0.82;0.82;;;;;;;;;;6183421;28;20050;-81
2021/08/29 16:20:17;;;;;;;4.15;3.38;;;;;;;;;;6188447;28;20708;-79
2021/08/29 16:23:19;;;;;;;3.20;2.08;;;;;;;;;;6190107;28;20043;-70
2021/08/29 16:26:20;;;;;;;3.25;1.30;;;;;;;;;;6178616;28;20571;-69
2021/08/29 16:29:22;;;;;;;1.40;1.10;;;;;;;;;;6190381;28;20498;-67
2021/08/29 16:32:25;;;;;;;2.17;1.20;;;;;;;;;;6178703;28;20046;-68
2021/08/29 16:35:26;;;;;;;1.30;0.95;;;;;;;;;;6185795;28;20590;-68
2021/08/29 16:38:28;;;;;;;1.52;1.20;;;;;;;;;;6189823;28;20079;-70
2021/08/29 16:41:29;;;;;;;2.05;1.08;;;;;;;;;;6183725;28;20105;-67
2021/08/29 16:44:31;;;;;;;2.33;1.75;;;;;;;;;;6190434;28;20165;-73
2021/08/29 16:47:34;;;;;;;3.35;1.48;;;;;;;;;;6177665;28;20050;-73
2021/08/29 16:50:35;;;;;;;2.58;1.40;;;;;;;;;;6181882;28;20189;-68
2021/08/29 16:53:38;;;;;;;1.55;1.30;;;;;;;;;;6189271;28;20117;-67
2021/08/29 16:56:40;;;;;;;4.10;1.20;;;;;;;;;;6178249;28;20055;-67
2021/08/29 16:59:42;;;;;;;4.20;1.17;;;;;;;;;;6187470;28;21096;-71
2021/08/29 17:02:45;;;;;;;2.20;1.20;;;;;;;;;;6178299;28;20782;-67
2021/08/29 17:05:47;;;;;;;1.52;1.20;;;;;;;;;;6179286;28;20054;-67
2021/08/29 17:08:48;;;;;;;0.98;0.88;;;;;;;;;;6189156;28;20057;-70
2021/08/29 17:11:50;;;;;;;1.67;1.00;;;;;;;;;;6184719;28;20073;-67
2021/08/29 17:14:51;;;;;;;2.13;1.08;;;;;;;;;;6188537;28;20125;-68
2021/08/29 17:17:54;;;;;;;1.75;0.90;;;;;;;;;;6174552;28;20533;-67
2021/08/29 17:21:04;;;;;;;2.00;1.27;;;;;;;;;;6177919;28;20507;-77
2021/08/29 17:24:05;;;;;;;2.28;1.02;;;;;;;;;;6190531;28;20054;-67
2021/08/29 17:27:07;;;;;;;1.92;1.02;;;;;;;;;;6177585;28;20467;-68
2021/08/29 17:30:10;;;;;;;2.03;1.15;;;;;;;;;;6188213;28;20053;-79
2021/08/29 17:33:13;;;;;;;1.75;1.20;;;;;;;;;;6186131;28;20141;-67
2021/08/29 17:36:14;;;;;;;;;;;;;;;;;;6176117;28;20084;-68
2021/08/29 17:39:16;;;;;;;1.85;1.00;;;;;;;;;;6197351;28;20004;-67
2021/08/29 17:42:18;;;;;;;2.00;1.00;;;;;;;;;;6184112;28;20043;-67
2021/08/29 17:45:20;;;;;;;2.97;1.15;;;;;;;;;;6181835;28;20522;-79
2021/08/29 17:48:23;;;;;;;2.05;1.17;;;;;;;;;;6181986;28;20125;-76
2021/08/29 17:51:24;;;;;;;2.35;1.08;;;;;;;;;;6183397;28;20050;-68
2021/08/29 17:54:26;;;;;;;2.75;1.27;;;;;;;;;;6189073;28;20272;-74
2021/08/29 17:57:27;;;;;;;2.15;1.25;;;;;;;;;;6183052;28;20203;-67
2021/08/29 18:00:29;;;;;;;4.00;1.40;;;;;;;;;;6183307;28;20572;-67
2021/08/29 18:03:32;;;;;;;2.95;1.65;;;;;;;;;;6181125;28;20129;-68
2021/08/29 18:06:34;;;;;;;3.50;1.30;;;;;;;;;;6180939;28;20102;-70
2021/08/29 18:09:36;;;;;;;2.03;1.10;;;;;;;;;;6184861;28;20446;-68
2021/08/29 18:12:38;;;;;;;5.05;1.50;;;;;;;;;;6184253;28;20132;-68
2021/08/29 18:15:39;;;;;;;3.40;1.45;;;;;;;;;;6180432;28;20134;-67
2021/08/29 18:18:43;;;;;;;2.53;1.45;;;;;;;;;;6184725;28;20081;-68
2021/08/29 18:21:44;;;;;;;;;;;;;;;;;;6178646;28;20129;-67